Time;durP1;ratioP1;P1;durP2;ratioP2;P2;SDS_P1;SDS_P2;PMS_P1;PMS_P2;Temp;Humidity;BMP_temperature;BMP_pressure;BME280_temperature;BME280_humidity;BME280_pressure;Samples;Min_cycle;Max_cycle;Signal;HPM_P1;HPM_P2
2023/12/26 00:00:14;;;;;;;2.47;1.70;;;8.70;93.90;;;;;;4919548;29;20498;-91
2023/12/26 00:02:43;;;;;;;3.53;2.92;;;8.70;94.50;;;;;;4926696;29;20141;-91
2023/12/26 00:05:09;;;;;;;3.22;1.77;;;8.70;94.30;;;;;;4943245;29;20025;-92
2023/12/26 00:07:34;;;;;;;3.58;1.85;;;8.80;94.40;;;;;;4948052;29;20506;-91
2023/12/26 00:10:00;;;;;;;5.13;1.92;;;8.80;94.20;;;;;;4939956;29;20024;-92
2023/12/26 00:12:26;;;;;;;2.22;1.65;;;8.80;93.60;;;;;;4946030;29;20028;-92
2023/12/26 00:14:52;;;;;;;2.53;1.40;;;8.90;93.10;;;;;;4944547;29;20034;-92
2023/12/26 00:17:18;;;;;;;2.25;1.70;;;8.80;92.90;;;;;;4942384;29;20028;-91
2023/12/26 00:19:45;;;;;;;2.78;2.03;;;8.90;93.00;;;;;;4926256;29;20055;-92
2023/12/26 00:22:11;;;;;;;2.60;1.50;;;8.80;93.00;;;;;;4932946;29;20661;-90
2023/12/26 00:24:37;;;;;;;2.50;1.45;;;8.90;93.20;;;;;;4926858;29;20021;-91
2023/12/26 00:27:03;;;;;;;2.33;1.73;;;8.90;92.20;;;;;;4950230;29;20091;-91
2023/12/26 00:29:32;;;;;;;2.83;2.33;;;8.90;92.10;;;;;;4948834;29;20040;-91
2023/12/26 00:31:58;;;;;;;3.90;1.92;;;8.90;92.90;;;;;;4949628;29;20075;-89
2023/12/26 00:34:23;;;;;;;3.15;2.92;;;8.90;92.60;;;;;;4950296;29;20027;-92
2023/12/26 00:36:49;;;;;;;2.75;1.45;;;8.90;92.00;;;;;;4950024;29;20024;-90
2023/12/26 00:39:15;;;;;;;2.92;2.05;;;8.90;93.00;;;;;;4949598;29;20031;-92
2023/12/26 00:41:40;;;;;;;3.92;1.95;;;8.90;92.50;;;;;;4948596;29;20028;-92
2023/12/26 00:44:06;;;;;;;3.00;1.48;;;8.90;92.30;;;;;;4933912;29;20024;-92
2023/12/26 00:46:32;;;;;;;2.67;1.52;;;8.90;92.60;;;;;;4933026;29;20031;-93
2023/12/26 00:48:58;;;;;;;2.33;1.63;;;8.90;92.60;;;;;;4952929;29;20028;-91
2023/12/26 00:51:25;;;;;;;4.22;2.53;;;8.80;92.80;;;;;;4954470;29;20079;-92
2023/12/26 00:53:50;;;;;;;2.25;1.35;;;8.80;92.90;;;;;;4950489;29;20025;-91
2023/12/26 00:56:16;;;;;;;1.83;1.45;;;8.80;92.80;;;;;;4949295;29;20087;-90
2023/12/26 00:58:43;;;;;;;3.58;1.80;;;8.80;92.70;;;;;;4949517;29;20032;-91
2023/12/26 01:01:09;;;;;;;3.15;1.55;;;8.80;93.60;;;;;;4924529;29;20027;-92
2023/12/26 01:03:35;;;;;;;2.30;2.00;;;8.70;93.50;;;;;;4949229;29;20024;-91
2023/12/26 01:06:01;;;;;;;3.10;2.13;;;8.70;94.00;;;;;;4932394;29;20032;-91
2023/12/26 01:08:27;;;;;;;4.93;2.88;;;8.60;94.40;;;;;;4932748;29;20039;-91
2023/12/26 01:10:53;;;;;;;3.85;2.05;;;8.60;94.60;;;;;;4950561;29;20035;-93
2023/12/26 01:13:19;;;;;;;3.50;1.90;;;8.60;94.80;;;;;;4933724;29;20028;-91
2023/12/26 01:15:45;;;;;;;2.70;1.80;;;8.70;95.20;;;;;;4948313;29;20039;-92
2023/12/26 01:18:10;;;;;;;4.43;2.15;;;8.60;94.80;;;;;;4922930;29;20047;-90
2023/12/26 01:20:36;;;;;;;4.10;1.52;;;8.60;94.90;;;;;;4928509;29;20033;-93
2023/12/26 01:23:02;;;;;;;3.53;1.45;;;8.60;95.20;;;;;;4930605;29;20028;-93
2023/12/26 01:25:28;;;;;;;4.05;2.20;;;8.60;94.80;;;;;;4932309;29;20035;-92
2023/12/26 01:27:54;;;;;;;5.00;3.75;;;8.60;95.30;;;;;;4948921;29;20426;-93
2023/12/26 01:30:20;;;;;;;3.25;2.45;;;8.50;95.30;;;;;;4931992;29;20028;-94
2023/12/26 01:32:46;;;;;;;4.50;1.92;;;8.50;95.20;;;;;;4949435;29;20113;-92
2023/12/26 01:35:12;;;;;;;5.60;3.10;;;8.50;95.30;;;;;;4948954;29;20034;-92
2023/12/26 01:37:37;;;;;;;4.88;1.90;;;8.50;95.60;;;;;;4950145;29;20027;-92
2023/12/26 01:40:03;;;;;;;5.22;2.58;;;8.50;95.80;;;;;;4932756;29;20035;-93
2023/12/26 01:42:29;;;;;;;4.65;2.25;;;8.50;95.90;;;;;;4918191;29;20113;-91
2023/12/26 01:44:57;;;;;;;3.85;1.73;;;8.50;96.00;;;;;;4941835;29;20111;-92
2023/12/26 01:47:23;;;;;;;5.82;2.88;;;8.40;95.80;;;;;;4931810;29;20028;-91
2023/12/26 01:49:49;;;;;;;4.68;2.30;;;8.40;95.40;;;;;;4930321;29;20039;-93
2023/12/26 01:52:19;;;;;;;3.42;1.20;;;8.40;96.00;;;;;;4940199;29;20034;-92
2023/12/26 01:54:46;;;;;;;4.32;2.20;;;8.40;95.70;;;;;;4948606;29;20042;-91
2023/12/26 01:57:12;;;;;;;3.05;1.95;;;8.40;96.60;;;;;;4923503;29;20020;-92
2023/12/26 01:59:38;;;;;;;4.93;1.92;;;8.40;96.20;;;;;;4944269;29;20039;-92
2023/12/26 02:02:05;;;;;;;2.22;1.60;;;8.40;96.20;;;;;;4915300;29;20088;-92
2023/12/26 02:04:31;;;;;;;6.28;1.45;;;8.40;96.00;;;;;;4942194;29;20027;-92
2023/12/26 02:06:58;;;;;;;2.58;1.60;;;8.40;95.50;;;;;;4940662;29;20020;-93
2023/12/26 02:09:29;;;;;;;3.17;1.90;;;8.40;95.60;;;;;;4940029;29;20028;-93
2023/12/26 02:11:55;;;;;;;4.18;3.03;;;8.40;95.70;;;;;;4949039;29;20027;-91
2023/12/26 02:14:21;;;;;;;3.22;1.73;;;8.40;95.30;;;;;;4952364;29;20043;-92
2023/12/26 02:16:49;;;;;;;3.38;1.88;;;8.50;94.80;;;;;;4945962;29;20031;-92
2023/12/26 02:19:18;;;;;;;;;;;8.50;94.40;;;;;;4934639;29;20051;-92
2023/12/26 02:21:44;;;;;;;3.72;2.72;;;8.50;93.90;;;;;;4932425;29;19914;-92
2023/12/26 02:24:10;;;;;;;2.53;1.50;;;8.50;94.30;;;;;;4912248;29;20028;-94
2023/12/26 02:26:40;;;;;;;3.80;2.03;;;8.50;93.20;;;;;;4930503;29;20047;-93
2023/12/26 02:29:08;;;;;;;3.05;2.05;;;8.60;93.50;;;;;;4945101;29;20024;-91
2023/12/26 02:31:36;;;;;;;4.35;2.10;;;8.60;93.40;;;;;;4936779;29;20024;-92
2023/12/26 02:34:02;;;;;;;2.88;1.80;;;8.60;93.50;;;;;;4928524;29;20031;-93
2023/12/26 02:36:28;;;;;;;5.20;2.35;;;8.50;93.20;;;;;;4933769;29;20030;-92
2023/12/26 02:38:54;;;;;;;2.00;1.58;;;8.60;93.20;;;;;;4931435;29;20056;-91
2023/12/26 02:41:19;;;;;;;3.22;2.20;;;8.50;93.20;;;;;;4948919;29;20027;-90
2023/12/26 02:43:45;;;;;;;3.35;1.65;;;8.60;93.70;;;;;;4928052;29;20028;-92
2023/12/26 02:46:12;;;;;;;2.58;1.80;;;8.50;94.10;;;;;;4931046;29;20024;-93
2023/12/26 02:48:38;;;;;;;3.67;1.55;;;8.50;93.50;;;;;;4940928;29;20494;-92
2023/12/26 02:51:04;;;;;;;2.30;1.75;;;8.50;93.50;;;;;;4949764;29;20038;-92
2023/12/26 02:53:29;;;;;;;5.88;2.53;;;8.50;93.20;;;;;;4949966;29;20028;-92
2023/12/26 02:55:55;;;;;;;3.88;3.08;;;8.50;93.20;;;;;;4946547;29;20406;-92
2023/12/26 02:58:22;;;;;;;2.90;1.65;;;8.50;92.70;;;;;;4932985;29;20032;-91
2023/12/26 03:00:48;;;;;;;3.13;2.10;;;8.60;92.30;;;;;;4912003;29;20538;-91
2023/12/26 03:03:14;;;;;;;5.05;1.40;;;8.60;91.80;;;;;;4939705;29;20047;-94
2023/12/26 03:05:39;;;;;;;4.75;1.70;;;8.60;91.40;;;;;;4934434;29;20024;-92
2023/12/26 03:08:05;;;;;;;3.72;1.92;;;8.60;91.10;;;;;;4938761;29;20115;-93
2023/12/26 03:10:31;;;;;;;5.57;1.77;;;8.70;91.10;;;;;;4942483;29;20499;-94
2023/12/26 03:12:57;;;;;;;3.28;1.85;;;8.70;90.90;;;;;;4937003;29;20047;-92
2023/12/26 03:15:24;;;;;;;3.65;2.30;;;8.70;90.00;;;;;;4936474;29;20062;-91
2023/12/26 03:17:50;;;;;;;3.08;1.42;;;8.80;89.70;;;;;;4913572;29;20059;-93
2023/12/26 03:20:16;;;;;;;5.57;1.83;;;8.80;89.40;;;;;;4947695;29;20023;-91
2023/12/26 03:22:41;;;;;;;6.38;2.35;;;8.80;89.00;;;;;;4947394;29;20543;-91
2023/12/26 03:25:08;;;;;;;5.75;2.20;;;8.80;89.20;;;;;;4938918;29;20027;-91
2023/12/26 03:27:34;;;;;;;4.57;1.90;;;8.80;88.50;;;;;;4922755;29;20019;-91
2023/12/26 03:30:00;;;;;;;4.32;3.00;;;8.90;88.90;;;;;;4930225;29;20031;-92
2023/12/26 03:32:25;;;;;;;2.83;1.90;;;8.90;88.60;;;;;;4933853;29;20052;-92
2023/12/26 03:34:51;;;;;;;3.10;2.10;;;8.90;88.10;;;;;;4933208;29;20039;-92
2023/12/26 03:37:17;;;;;;;3.85;1.92;;;9.00;87.80;;;;;;4951556;29;20117;-92
2023/12/26 03:39:42;;;;;;;8.30;2.08;;;9.00;87.20;;;;;;4931572;29;20048;-92
2023/12/26 03:42:08;;;;;;;3.20;1.73;;;9.00;87.70;;;;;;4935149;29;20053;-92
2023/12/26 03:44:35;;;;;;;3.75;1.63;;;9.00;87.90;;;;;;4940492;29;20483;-89
2023/12/26 03:47:00;;;;;;;3.90;1.60;;;8.90;87.80;;;;;;4934570;29;20032;-92
2023/12/26 03:49:26;;;;;;;3.65;1.75;;;9.00;87.20;;;;;;4930577;29;20060;-93
2023/12/26 03:51:52;;;;;;;4.97;1.58;;;8.90;87.90;;;;;;4932363;29;20028;-93
2023/12/26 03:54:19;;;;;;;5.72;2.25;;;9.00;87.20;;;;;;4943671;29;20023;-90
2023/12/26 03:56:45;;;;;;;2.38;1.77;;;8.90;87.40;;;;;;4936492;29;20024;-91
2023/12/26 03:59:14;;;;;;;3.05;1.98;;;9.00;87.30;;;;;;4947891;29;20099;-93
2023/12/26 04:01:47;;;;;;;5.50;1.55;;;9.00;87.10;;;;;;4940401;29;20047;-91
2023/12/26 04:04:13;;;;;;;4.30;1.83;;;9.00;87.10;;;;;;4940179;29;20472;-92
2023/12/26 04:06:39;;;;;;;4.65;2.13;;;9.00;87.30;;;;;;4933203;29;20020;-90
2023/12/26 04:09:05;;;;;;;3.45;1.40;;;9.00;87.60;;;;;;4951546;29;20051;-92
2023/12/26 04:11:32;;;;;;;2.80;1.63;;;9.00;87.20;;;;;;4951312;29;20090;-91
2023/12/26 04:13:58;;;;;;;3.35;2.00;;;9.00;87.60;;;;;;4942283;29;20028;-91
2023/12/26 04:16:23;;;;;;;5.15;2.30;;;8.90;88.00;;;;;;4943177;29;20038;-92
2023/12/26 04:18:49;;;;;;;7.38;3.22;;;9.00;87.60;;;;;;4942300;29;20027;-93
2023/12/26 04:21:15;;;;;;;3.83;2.35;;;8.90;87.10;;;;;;4947943;29;20058;-92
2023/12/26 04:23:41;;;;;;;4.18;2.05;;;8.90;87.50;;;;;;4945527;29;20035;-92
2023/12/26 04:26:06;;;;;;;3.40;2.72;;;9.00;87.80;;;;;;4941135;29;20040;-92
2023/12/26 04:28:35;;;;;;;5.63;3.00;;;9.00;87.20;;;;;;4945156;29;20027;-91
2023/12/26 04:31:03;;;;;;;6.20;3.05;;;9.00;87.20;;;;;;4942768;29;20446;-91
2023/12/26 04:33:29;;;;;;;2.83;1.38;;;9.00;87.30;;;;;;4929597;29;20083;-92
2023/12/26 04:35:54;;;;;;;2.33;1.45;;;9.10;87.00;;;;;;4929736;29;20491;-93
2023/12/26 04:38:20;;;;;;;2.50;2.28;;;9.00;87.30;;;;;;4940113;29;20032;-91
2023/12/26 04:40:48;;;;;;;7.55;2.40;;;9.00;86.90;;;;;;4927914;29;20059;-92
2023/12/26 04:43:17;;;;;;;4.22;2.40;;;9.00;86.80;;;;;;4926113;29;20034;-89
2023/12/26 04:45:42;;;;;;;5.28;1.90;;;9.00;87.40;;;;;;4945749;29;20020;-92
2023/12/26 04:48:09;;;;;;;2.63;1.92;;;9.00;87.30;;;;;;4950186;29;20031;-92
2023/12/26 04:50:35;;;;;;;3.28;2.33;;;9.00;86.90;;;;;;4949174;29;20114;-91
2023/12/26 04:53:06;;;;;;;5.65;1.98;;;9.00;86.60;;;;;;4939963;29;20335;-91
2023/12/26 04:55:32;;;;;;;2.60;1.85;;;9.10;86.40;;;;;;4918945;29;20036;-92
2023/12/26 04:57:58;;;;;;;10.07;2.08;;;9.00;86.00;;;;;;4948831;29;20039;-91
2023/12/26 05:00:24;;;;;;;6.40;2.88;;;9.00;86.00;;;;;;4929632;29;20443;-93
2023/12/26 05:02:52;;;;;;;4.18;2.17;;;9.10;85.60;;;;;;4945949;29;20031;-90
2023/12/26 05:05:18;;;;;;;4.40;1.75;;;9.10;85.50;;;;;;4941734;29;20034;-92
2023/12/26 05:07:44;;;;;;;3.67;1.75;;;9.10;85.70;;;;;;4929689;29;20029;-93
2023/12/26 05:10:09;;;;;;;9.23;4.25;;;9.10;85.20;;;;;;4932257;29;20439;-93
2023/12/26 05:12:35;;;;;;;7.65;1.95;;;9.20;84.50;;;;;;4931422;29;20051;-91
2023/12/26 05:15:01;;;;;;;2.70;2.45;;;9.20;84.50;;;;;;4930745;29;20047;-93
2023/12/26 05:17:27;;;;;;;2.17;1.25;;;9.20;84.70;;;;;;4947137;29;20032;-92
2023/12/26 05:19:52;;;;;;;3.85;2.08;;;9.20;84.50;;;;;;4941557;29;20052;-92
2023/12/26 05:22:21;;;;;;;3.70;2.45;;;9.20;84.50;;;;;;4949002;29;20024;-93
2023/12/26 05:24:46;;;;;;;2.90;2.08;;;9.10;84.80;;;;;;4944012;29;20052;-91
2023/12/26 05:27:14;;;;;;;4.15;2.13;;;9.20;84.40;;;;;;4940673;29;20028;-93
2023/12/26 05:29:43;;;;;;;3.38;1.77;;;9.20;84.00;;;;;;4923642;29;20032;-93
2023/12/26 05:32:09;;;;;;;5.80;2.05;;;9.30;84.00;;;;;;4938145;29;20026;-93
2023/12/26 05:34:35;;;;;;;4.95;2.30;;;9.30;84.00;;;;;;4937827;29;20083;-92
2023/12/26 05:37:01;;;;;;;5.30;2.30;;;9.30;84.20;;;;;;4944087;29;20044;-90
2023/12/26 05:39:26;;;;;;;3.72;1.63;;;9.30;84.00;;;;;;4925693;29;20050;-92
2023/12/26 05:42:02;;;;;;;3.53;1.50;;;9.30;83.80;;;;;;4923990;29;20039;-92
2023/12/26 05:44:28;;;;;;;3.08;2.42;;;9.30;83.70;;;;;;4942627;29;20509;-91
2023/12/26 05:46:57;;;;;;;3.95;1.88;;;9.30;84.00;;;;;;4914767;29;20028;-91
2023/12/26 05:49:23;;;;;;;4.88;1.40;;;9.30;83.30;;;;;;4941563;29;20051;-92
2023/12/26 05:51:48;;;;;;;4.82;1.50;;;9.30;83.30;;;;;;4950273;29;20091;-91
2023/12/26 05:54:14;;;;;;;2.42;1.90;;;9.30;83.00;;;;;;4915793;29;20024;-92
2023/12/26 05:56:42;;;;;;;3.75;1.70;;;9.40;83.60;;;;;;4939445;29;20032;-92
2023/12/26 05:59:08;;;;;;;2.38;1.60;;;9.30;83.80;;;;;;4920759;29;20032;-91
2023/12/26 06:01:34;;;;;;;5.07;1.63;;;9.30;83.80;;;;;;4936856;29;20028;-92
2023/12/26 06:04:00;;;;;;;3.47;2.28;;;9.30;84.20;;;;;;4938654;29;20060;-91
2023/12/26 06:06:26;;;;;;;5.47;2.22;;;9.30;84.20;;;;;;4943934;29;20032;-91
2023/12/26 06:08:54;;;;;;;4.90;2.22;;;9.20;84.00;;;;;;4928652;29;20052;-91
2023/12/26 06:11:20;;;;;;;3.10;1.55;;;9.30;84.00;;;;;;4929820;29;20016;-92
2023/12/26 06:13:46;;;;;;;7.03;1.98;;;9.20;84.00;;;;;;4920368;29;20027;-90
2023/12/26 06:16:15;;;;;;;5.03;1.95;;;9.20;84.10;;;;;;4948669;29;20039;-92
2023/12/26 06:18:40;;;;;;;10.25;3.10;;;9.20;83.60;;;;;;4936194;29;20035;-92
2023/12/26 06:21:06;;;;;;;5.85;2.00;;;9.30;83.90;;;;;;4948675;29;20051;-94
2023/12/26 06:23:32;;;;;;;5.28;2.58;;;9.30;84.50;;;;;;4947995;29;20127;-91
2023/12/26 06:25:57;;;;;;;3.05;2.00;;;9.20;84.10;;;;;;4948213;29;20032;-91
2023/12/26 06:28:23;;;;;;;5.32;2.22;;;9.20;84.40;;;;;;4932030;29;20118;-92
2023/12/26 06:30:49;;;;;;;6.72;2.28;;;9.20;84.60;;;;;;4934077;29;20035;-92
2023/12/26 06:33:15;;;;;;;3.75;1.52;;;9.10;85.40;;;;;;4932460;29;20039;-92
2023/12/26 06:35:41;;;;;;;5.88;2.47;;;9.10;85.50;;;;;;4935286;29;20507;-92
2023/12/26 06:38:12;;;;;;;4.82;1.48;;;9.10;85.60;;;;;;4914393;29;20027;-91
2023/12/26 06:40:42;;;;;;;3.28;1.95;;;9.10;85.60;;;;;;4917726;29;20038;-93
2023/12/26 06:43:09;;;;;;;3.15;2.33;;;9.00;85.80;;;;;;4943413;29;20058;-92
2023/12/26 06:45:34;;;;;;;4.07;2.05;;;9.10;85.90;;;;;;4948096;29;20028;-92
2023/12/26 06:48:00;;;;;;;5.82;2.08;;;9.00;86.10;;;;;;4928482;29;20047;-93
2023/12/26 06:50:26;;;;;;;5.82;2.58;;;9.00;86.50;;;;;;4937296;29;20095;-91
2023/12/26 06:52:51;;;;;;;4.22;2.15;;;9.00;86.00;;;;;;4943421;29;20040;-92
2023/12/26 06:55:17;;;;;;;3.25;1.85;;;9.00;86.50;;;;;;4947922;29;20035;-94
2023/12/26 06:57:43;;;;;;;3.92;2.42;;;8.90;86.20;;;;;;4935363;29;20086;-92
2023/12/26 07:00:25;;;;;;;5.45;2.58;;;8.90;86.90;;;;;;4924173;29;20024;-92
2023/12/26 07:02:55;;;;;;;5.45;2.47;;;8.90;87.20;;;;;;4920502;29;20035;-92
2023/12/26 07:05:31;;;;;;;;;;;;;;;;;;;;;
2023/12/26 07:07:57;;;;;;;4.28;2.05;;;9.00;87.20;;;;;;4937116;29;20111;-91
2023/12/26 07:10:23;;;;;;;4.47;1.70;;;8.90;88.00;;;;;;4942415;29;20035;-92
2023/12/26 07:12:48;;;;;;;3.42;1.50;;;8.90;88.20;;;;;;4924346;29;20024;-91
2023/12/26 07:15:14;;;;;;;5.78;2.60;;;8.90;88.30;;;;;;4941695;29;20039;-91
2023/12/26 07:17:46;;;;;;;2.65;1.83;;;8.90;87.70;;;;;;4942317;29;20027;-91
2023/12/26 07:20:19;;;;;;;4.47;2.22;;;8.80;88.20;;;;;;4921880;29;20051;-92
2023/12/26 07:22:45;;;;;;;6.00;2.53;;;8.90;88.70;;;;;;4939647;29;20020;-92
2023/12/26 07:25:11;;;;;;;3.92;2.65;;;8.80;88.60;;;;;;4928307;29;20036;-92
2023/12/26 07:27:37;;;;;;;4.53;2.63;;;8.80;89.00;;;;;;4929661;29;20044;-93
2023/12/26 07:30:03;;;;;;;4.10;2.47;;;8.80;89.00;;;;;;4946605;29;20079;-92
2023/12/26 07:32:28;;;;;;;4.93;2.70;;;8.80;88.90;;;;;;4935037;29;20054;-92
2023/12/26 07:34:54;;;;;;;4.50;2.67;;;8.80;89.00;;;;;;4943917;29;20019;-89
2023/12/26 07:37:20;;;;;;;3.92;2.08;;;8.80;89.70;;;;;;4944342;29;20047;-91
2023/12/26 07:39:46;;;;;;;3.38;1.75;;;8.80;89.70;;;;;;4928876;29;20024;-92
2023/12/26 07:42:12;;;;;;;5.60;4.07;;;8.80;89.40;;;;;;4931345;29;20376;-92
2023/12/26 07:44:37;;;;;;;4.38;2.00;;;8.80;89.30;;;;;;4930092;29;20036;-92
2023/12/26 07:47:03;;;;;;;2.78;2.08;;;8.80;90.20;;;;;;4938794;29;20028;-92
2023/12/26 07:49:29;;;;;;;4.85;2.03;;;8.80;89.60;;;;;;4928203;29;20060;-91
2023/12/26 07:51:55;;;;;;;4.50;1.60;;;8.80;90.20;;;;;;4927135;29;20111;-91
2023/12/26 07:54:20;;;;;;;5.22;2.05;;;8.80;90.00;;;;;;4924136;29;20107;-91
2023/12/26 07:56:46;;;;;;;6.63;2.67;;;8.80;90.10;;;;;;4908828;29;20054;-91
2023/12/26 07:59:13;;;;;;;3.60;2.22;;;8.80;90.10;;;;;;4928280;29;20096;-91
2023/12/26 08:01:39;;;;;;;4.05;2.10;;;8.80;89.30;;;;;;4932286;29;20115;-91
2023/12/26 08:04:05;;;;;;;4.07;3.55;;;8.80;89.40;;;;;;4934932;29;20020;-91
2023/12/26 08:06:31;;;;;;;3.35;1.92;;;8.90;89.20;;;;;;4943826;29;20032;-90
2023/12/26 08:08:58;;;;;;;3.50;1.73;;;8.90;89.40;;;;;;4932845;29;20036;-92
2023/12/26 08:11:24;;;;;;;6.20;2.38;;;8.90;88.00;;;;;;4931093;29;20043;-91
2023/12/26 08:13:50;;;;;;;4.20;1.70;;;8.90;88.10;;;;;;4946093;29;20028;-91
2023/12/26 08:16:16;;;;;;;7.28;2.53;;;9.00;88.00;;;;;;4929768;29;20060;-91
2023/12/26 08:18:42;;;;;;;4.28;3.83;;;9.00;88.60;;;;;;4948052;29;20408;-93
2023/12/26 08:21:08;;;;;;;5.10;2.45;;;9.00;88.00;;;;;;4927429;29;20055;-92
2023/12/26 08:23:36;;;;;;;7.60;4.43;;;9.00;88.10;;;;;;4947633;29;20403;-93
2023/12/26 08:26:06;;;;;;;3.08;2.40;;;9.00;88.30;;;;;;4940963;29;20032;-92
2023/12/26 08:28:32;;;;;;;4.75;2.45;;;9.00;88.60;;;;;;4929308;29;20027;-91
2023/12/26 08:30:58;;;;;;;4.55;1.83;;;9.00;89.20;;;;;;4945911;29;20100;-91
2023/12/26 08:33:24;;;;;;;3.92;1.75;;;9.00;89.60;;;;;;4936688;29;20063;-91
2023/12/26 08:35:50;;;;;;;7.75;2.65;;;9.00;90.70;;;;;;4945563;29;20043;-92
2023/12/26 08:38:17;;;;;;;4.88;2.40;;;8.90;91.00;;;;;;4945231;29;20035;-93
2023/12/26 08:40:42;;;;;;;5.57;1.88;;;8.90;90.80;;;;;;4945831;29;20501;-92
2023/12/26 08:43:08;;;;;;;2.75;2.50;;;8.90;91.90;;;;;;4946379;29;20032;-91
2023/12/26 08:45:36;;;;;;;7.20;2.92;;;8.90;91.90;;;;;;4928155;29;20028;-92
2023/12/26 08:48:02;;;;;;;3.92;2.35;;;8.90;91.90;;;;;;4944237;29;20501;-91
2023/12/26 08:50:28;;;;;;;5.55;2.63;;;8.90;91.70;;;;;;4934848;29;20087;-92
2023/12/26 08:52:53;;;;;;;4.47;2.50;;;8.90;91.90;;;;;;4931948;29;20043;-94
2023/12/26 08:55:19;;;;;;;6.05;2.35;;;8.80;92.40;;;;;;4947926;29;20040;-93
2023/12/26 08:57:45;;;;;;;7.05;2.42;;;8.90;92.20;;;;;;4928170;29;20028;-90
2023/12/26 09:00:13;;;;;;;7.75;2.72;;;8.80;92.20;;;;;;4945412;29;20039;-91
2023/12/26 09:02:42;;;;;;;3.50;2.33;;;8.80;94.50;;;;;;4940142;29;20031;-91
2023/12/26 09:05:08;;;;;;;5.47;2.92;;;8.80;95.20;;;;;;4929835;29;20031;-91
2023/12/26 09:07:34;;;;;;;4.53;2.20;;;8.80;97.50;;;;;;4929112;29;20035;-90
2023/12/26 09:10:00;;;;;;;4.70;2.30;;;8.60;99.70;;;;;;4943258;29;20035;-92
2023/12/26 09:12:26;;;;;;;6.22;2.35;;;8.50;99.90;;;;;;4940014;29;20036;-93
2023/12/26 09:14:52;;;;;;;4.25;2.55;;;8.50;99.90;;;;;;4929043;29;20039;-90
2023/12/26 09:17:18;;;;;;;5.50;3.70;;;8.50;99.90;;;;;;4945927;29;20492;-93
2023/12/26 09:19:43;;;;;;;6.50;2.08;;;8.50;99.90;;;;;;4946325;29;20066;-93
2023/12/26 09:22:09;;;;;;;8.70;3.38;;;8.50;99.90;;;;;;4944947;29;20024;-91
2023/12/26 09:24:35;;;;;;;6.05;2.67;;;8.50;99.90;;;;;;4938948;29;20032;-92
2023/12/26 09:27:03;;;;;;;3.05;2.47;;;8.50;99.90;;;;;;4942051;29;20482;-91
2023/12/26 09:29:39;;;;;;;7.45;4.47;;;8.50;99.90;;;;;;4938983;29;20443;-90
2023/12/26 09:32:05;;;;;;;4.70;2.30;;;8.50;99.90;;;;;;4910075;29;20058;-94
2023/12/26 09:34:31;;;;;;;7.07;2.25;;;8.50;99.90;;;;;;4937488;29;20148;-93
2023/12/26 09:36:57;;;;;;;5.95;2.38;;;8.50;99.90;;;;;;4928762;29;20092;-91
2023/12/26 09:39:22;;;;;;;5.40;2.47;;;8.40;99.90;;;;;;4932270;29;20060;-93
2023/12/26 09:42:21;;;;;;;7.75;2.92;;;8.40;99.90;;;;;;4929229;29;20023;-91
2023/12/26 09:44:56;;;;;;;10.35;3.45;;;8.30;99.90;;;;;;4937434;29;20020;-92
2023/12/26 09:47:24;;;;;;;5.82;3.30;;;8.30;99.90;;;;;;4935137;29;20047;-91
2023/12/26 09:49:50;;;;;;;7.10;3.30;;;8.30;99.90;;;;;;4925910;29;20027;-91
2023/12/26 09:52:23;;;;;;;5.85;2.50;;;8.30;99.90;;;;;;4928091;29;20036;-92
2023/12/26 09:54:50;;;;;;;3.70;1.85;;;8.30;99.90;;;;;;4935142;29;20471;-92
2023/12/26 09:57:16;;;;;;;6.50;2.80;;;8.30;99.90;;;;;;4941186;29;20031;-92
2023/12/26 09:59:43;;;;;;;4.43;3.40;;;8.20;99.90;;;;;;4925656;29;20093;-91
2023/12/26 10:02:12;;;;;;;5.70;2.20;;;8.30;99.90;;;;;;4942527;29;20028;-91
2023/12/26 10:04:45;;;;;;;10.68;2.72;;;8.30;99.90;;;;;;4942453;29;20071;-91
2023/12/26 10:07:18;;;;;;;6.35;4.45;;;8.30;99.90;;;;;;4929351;29;20027;-93
2023/12/26 10:09:51;;;;;;;4.35;2.08;;;8.40;99.90;;;;;;4931650;29;20028;-92
2023/12/26 10:12:29;;;;;;;7.50;2.33;;;8.40;99.90;;;;;;4929662;29;20028;-92
2023/12/26 10:15:03;;;;;;;6.85;2.58;;;8.40;99.90;;;;;;4931029;29;20043;-92
2023/12/26 10:17:36;;;;;;;6.30;3.50;;;8.40;99.90;;;;;;4916783;29;20036;-92
2023/12/26 10:20:03;;;;;;;6.82;2.03;;;8.40;99.90;;;;;;4927103;29;20043;-93
2023/12/26 10:22:35;;;;;;;4.70;2.75;;;8.40;99.90;;;;;;4934710;29;20024;-93
2023/12/26 10:25:22;;;;;;;4.10;2.35;;;8.40;99.90;;;;;;4929530;29;20024;-92
2023/12/26 10:27:54;;;;;;;8.60;3.22;;;8.50;99.90;;;;;;4934502;29;20083;-92
2023/12/26 10:30:27;;;;;;;4.40;2.88;;;8.40;99.90;;;;;;4921105;29;20032;-92
2023/12/26 10:33:02;;;;;;;5.63;2.60;;;8.50;99.90;;;;;;4924710;29;20032;-91
2023/12/26 10:35:33;;;;;;;4.70;3.53;;;8.50;99.90;;;;;;4911275;29;20051;-91
2023/12/26 10:38:02;;;;;;;5.75;2.15;;;8.50;99.90;;;;;;4938100;29;20028;-92
2023/12/26 10:40:28;;;;;;;4.80;2.65;;;8.50;99.90;;;;;;4910093;29;20086;-93
2023/12/26 10:43:01;;;;;;;8.38;2.65;;;8.40;99.90;;;;;;4917825;29;20035;-94
2023/12/26 10:45:39;;;;;;;7.32;2.97;;;8.40;99.90;;;;;;4927532;29;20024;-93
2023/12/26 10:48:16;;;;;;;6.50;2.28;;;8.40;99.90;;;;;;4939040;29;20083;-93
2023/12/26 10:50:42;;;;;;;6.15;2.53;;;8.40;99.90;;;;;;4929191;29;20026;-91
2023/12/26 10:53:16;;;;;;;4.50;3.63;;;8.30;99.90;;;;;;4927967;29;20052;-93
2023/12/26 10:55:49;;;;;;;9.85;2.80;;;8.30;99.90;;;;;;4924934;29;20031;-92
2023/12/26 10:58:31;;;;;;;7.63;3.58;;;8.30;99.90;;;;;;4919365;29;20051;-93
2023/12/26 11:01:05;;;;;;;7.30;3.22;;;8.30;99.90;;;;;;4929306;29;20016;-90
2023/12/26 13:52:40;;;;;;;6.78;3.17;;;9.00;99.90;;;;;;4945995;29;20047;-93
2023/12/26 13:55:42;;;;;;;5.65;3.50;;;9.00;99.90;;;;;;4936538;29;20031;-93
2023/12/26 13:58:47;;;;;;;9.57;3.15;;;9.10;99.90;;;;;;4943606;29;20023;-92
2023/12/26 14:01:51;;;;;;;4.38;2.58;;;9.00;99.90;;;;;;4931490;29;20024;-91
2023/12/26 14:04:54;;;;;;;5.57;3.78;;;9.10;99.90;;;;;;4955993;29;20262;-94
2023/12/26 14:07:57;;;;;;;6.95;3.33;;;9.10;99.90;;;;;;4941078;28;20083;-94
2023/12/26 14:11:01;;;;;;;6.07;4.05;;;9.10;99.90;;;;;;4937639;29;20032;-93
2023/12/26 14:14:04;;;;;;;7.03;3.33;;;9.00;99.90;;;;;;4943755;29;20043;-93
2023/12/26 14:17:07;;;;;;;5.88;2.80;;;9.10;99.90;;;;;;4927169;29;20047;-92
2023/12/26 14:20:11;;;;;;;7.88;2.75;;;9.10;99.90;;;;;;4926838;29;20028;-93
2023/12/26 14:23:14;;;;;;;4.13;2.53;;;9.10;99.90;;;;;;4934152;29;20024;-92
2023/12/26 14:26:17;;;;;;;7.90;3.55;;;9.10;99.90;;;;;;4937220;29;20024;-92
2023/12/26 14:29:20;;;;;;;4.78;2.13;;;9.10;99.90;;;;;;4933960;29;20024;-92
2023/12/26 14:32:23;;;;;;;6.72;3.30;;;9.10;99.90;;;;;;4928777;29;20042;-93
2023/12/26 14:35:30;;;;;;;6.88;3.45;;;9.00;99.90;;;;;;4918544;29;20055;-92
2023/12/26 14:38:33;;;;;;;9.65;3.08;;;8.90;99.90;;;;;;4935316;29;20032;-93
2023/12/26 14:41:36;;;;;;;4.85;3.45;;;8.90;99.90;;;;;;4934764;29;20024;-92
2023/12/26 14:44:40;;;;;;;7.68;5.38;;;8.80;99.90;;;;;;4927894;29;20445;-92
2023/12/26 14:47:43;;;;;;;6.65;2.65;;;8.70;99.90;;;;;;4943080;29;20107;-90
2023/12/26 14:50:46;;;;;;;5.82;2.92;;;8.70;99.90;;;;;;4944969;29;20027;-92
2023/12/26 14:53:49;;;;;;;7.10;2.63;;;8.70;99.90;;;;;;4946655;29;20561;-92
2023/12/26 14:56:52;;;;;;;9.90;3.72;;;8.70;99.90;;;;;;4931831;29;20043;-90
2023/12/26 14:59:55;;;;;;;7.10;2.72;;;8.70;99.90;;;;;;4938951;29;20035;-93
2023/12/26 15:02:24;;;;;;;4.03;2.95;;;8.70;99.90;;;;;;4942911;29;20032;-93
2023/12/26 15:04:50;;;;;;;7.57;3.33;;;8.70;99.90;;;;;;4903585;29;20035;-92
2023/12/26 15:07:17;;;;;;;5.88;3.03;;;8.70;99.90;;;;;;4946411;29;20039;-93
2023/12/26 15:09:42;;;;;;;6.85;4.07;;;8.70;99.90;;;;;;4926929;29;20056;-92
2023/12/26 15:12:09;;;;;;;4.43;2.35;;;8.70;99.90;;;;;;4945848;29;20479;-92
2023/12/26 15:14:38;;;;;;;5.20;2.42;;;8.70;99.90;;;;;;4927034;29;20115;-91
2023/12/26 15:17:04;;;;;;;4.45;2.55;;;8.70;99.90;;;;;;4928889;29;20060;-92
2023/12/26 15:19:33;;;;;;;3.33;2.42;;;8.80;99.90;;;;;;4932475;29;20028;-93
2023/12/26 15:21:58;;;;;;;5.28;2.58;;;8.70;99.90;;;;;;4931995;29;20024;-91
2023/12/26 15:24:24;;;;;;;3.85;3.45;;;8.70;99.90;;;;;;4931711;29;20115;-92
2023/12/26 15:26:50;;;;;;;6.80;3.20;;;8.70;99.90;;;;;;4925147;29;20087;-94
2023/12/26 15:29:16;;;;;;;5.88;3.03;;;8.80;99.90;;;;;;4926593;29;20032;-92
2023/12/26 15:31:42;;;;;;;7.05;2.80;;;8.80;99.90;;;;;;4940131;29;20036;-92
2023/12/26 15:34:08;;;;;;;5.25;3.05;;;8.70;99.90;;;;;;4946739;29;20027;-91
2023/12/26 15:36:34;;;;;;;6.13;3.22;;;8.70;99.90;;;;;;4929623;29;20032;-93
2023/12/26 15:38:59;;;;;;;5.60;2.70;;;8.80;99.90;;;;;;4936710;29;20031;-93
2023/12/26 15:41:25;;;;;;;3.53;2.17;;;8.80;99.90;;;;;;4935777;29;20031;-92
2023/12/26 15:43:54;;;;;;;4.22;2.58;;;8.90;99.90;;;;;;4945261;29;20035;-95
2023/12/26 15:46:23;;;;;;;6.40;2.42;;;8.80;99.90;;;;;;4947886;29;20047;-92
2023/12/26 15:48:49;;;;;;;5.93;2.85;;;8.80;99.90;;;;;;4934348;29;20024;-92
2023/12/26 15:51:19;;;;;;;5.13;2.70;;;8.80;99.90;;;;;;4950045;29;20028;-92
2023/12/26 15:53:47;;;;;;;4.80;2.55;;;8.90;99.90;;;;;;4939537;29;20047;-94
2023/12/26 15:56:14;;;;;;;4.93;2.15;;;8.90;99.90;;;;;;4939200;29;20111;-91
2023/12/26 15:58:40;;;;;;;4.38;2.25;;;8.90;99.90;;;;;;4940824;29;20061;-94